Flugplatz Greiz-Obergrochlitz

Für EDOT sind keine METAR/TAF Berichte vorhanden.
Es werden die Flugwettermeldungen vom Flugplatz Altenburg-Nobitz in 44 km Entfernung angezeigt.

Bericht für EDAC

vom 27.09. um 00:20 UTC

Wind 5 kt aus 130°

Sichtweite 10 km oder mehr

keine Wolken

Temperatur 5.0°C

Taupunkt 4.0°C

Luftfeuchtigkeit 93%

Luftdruck 999 hPa

EDAC 270020Z AUTO 13005KT 9999 // NCD 05/04 Q0999

Prognose für EDAC

vom 26.09. um 17:00 UTC

Am 26.09. zwischen 18:00 UTC und 03:00 UTC

Wind 8 kt aus 220°

Sichtweite 10 km oder mehr

aufgebrochene Bewölkung in 3000 ft


Am 26.09. zwischen 18:00 UTC und 20:00 UTC zeitweise mit einer Wahrscheinlichkeit von 30%

Sichtweite 4000 m

Regen

Sprühregen

aufgebrochene Bewölkung in 1000 ft

TAF EDAC 261700Z 2618/2703 22008KT 9999 BKN030 PROB30 TEMPO 2618/2620 4000 RADZ BKN010
Impressum